Terminal Aerodrome Forecast
Issued by NWS

Home | Current Version | Previous Version | Text Only | Print | Product List | Glossary On
Versions: 1 2 3 4 5 6 7 8 9 10 11 12 13
384
FTUS44 KLZK 251120
TAFPBF
TAF
KPBF 251120Z 2512/2612 18009KT P6SM BKN040 BKN250
     FM251600 18008G15KT P6SM VCTS BKN030CB OVC250
     FM260000 19010KT P6SM SCT030 BKN060
      TEMPO 2608/2612 4SM BR BKN025=

USA.gov is the U.S. government's official web portal to all federal, state and local government web resources and services.